Mineral Point, WI

12:31 CDT le 17 septembre 2014 (GMT -0500)
KWIMINER1 | Change Station
CLOSE
Current Station
Stations météorologiques personnelles
Location: Mineral Point, WI
Altitude: 1066 ft
Stations météo à proximité

Alt. 1066 ft 42.85 °N, 90.18 °W | Updated 9 minutes ago

Couvert
Couvert
65.0 ° F
Paraît 65.0 ° F
N
0.0
Vent Variable Vent de SE
Gusts 4.0 mph

Aujourd'hui
Haut(e) -- | Bas -- ° F
--% Risque de précip.
Hier
Haut(e) -- | Bas -- ° F
Precip. -- pouce
6:42 AM 7:06 PM
Lune descendante, 34% visible
Pression 30.02 pouce
Visibilité 10.0 Miles terrestres
Nuages Nuageux 9000 ft
Point de rosée 53 ° F
Humidité 65%
Précipitations 0.00 pouce
Profondeur de la couche neigeuse Non disponible.
UV 4 sur 12
Pollen 3.80 sur 12
Qualité de l'air Non disponible.
Flu Activity Non disponible.
METAR KMRJ 171715Z AUTO 18004KT 10SM BKN090 19/08 A3002 RMK AO2

More Conditions Fewer Conditions

Pression 30.02 pouce
Visibilité 10.0 Miles terrestres
Nuages Nuageux 9000 ft
Point de rosée 53 ° F
Humidité 65%
Précipitations 0.00 pouce
Profondeur de la couche neigeuse Non disponible.
UV 4 sur 12
Pollen 3.80 sur 12
Qualité de l'air Non disponible.
Flu Activity Non disponible.
METAR KMRJ 171715Z AUTO 18004KT 10SM BKN090 19/08 A3002 RMK AO2

More Conditions Fewer Conditions

10-Day Weather Forecast

Almanac

Astronomie

Sep. 17, 2014 Lever Coucher
Temps réel 06:42 CDT 19:06 CDT
Crépuscule civil 06:14 CDT 19:35 CDT
Crépuscule nautique 05:40 CDT 20:08 CDT
Crépuscule astronomique 05:06 CDT 20:42 CDT
Lune 00:36 CDT 15:22 CDT
Durée de lumière visible 13h 21m
Longueur du jour
12h 24m
Tomorrow will be 2m 53s shorter.
Lune descendante, 34% of the Moon is Illuminated
Aujourd'hui
Lune descendante
Sep 24
Nouveau
Oct 1
Premier quartier
Oct 8
Pleine lune
Oct 15
Dernier quartier

Extrêmes aujourd'hui

State Highs State Lows

Community

WunderPhotos

Upload Photos

1,754,109 Photos téléchargées !

Nearby

Épaisseur de neige

Station Depth Altitude
Pas de nouvelles chutes de neige

Activité sismique

Ville Distance Mag. Time & Date
No recent earthquake activity has been reported nearby.
Minimum magnitude displayed is 2.5.

Températures des eaux côtières

Lieu Température
Aucun rapport de station

Stations météo à proximité